GLO1736 SBBR-SBBE
Flight info
| Callsign | GLO1736 |
|---|---|
| Flight time | 2h 2m |
| Altitude | 36000 |
| Route | ILKUS UZ26 IROMU |
| Aircraft | B738/M-SDFGIKLORWXY/LB1 |
Departure
| Time | 2026-05-06 13:01 |
|---|---|
| Airport | Presidente Juscelino Kubitschek International Airport (SBBR) |
Arrival
| Time | 2026-05-06 15:04 |
|---|---|
| Airport | Val de Cans/Júlio Cezar Ribeiro International Airport (SBBE) |
| Time | Latitude | Longitude | Altitude | Speed | Heading |
|---|---|---|---|---|---|
| 2026-05-06 12:43 | -15.86856 | -47.91875 | 3471 ft | 0 kts | 356° |
| 2026-05-06 12:52 | -15.86858 | -47.91874 | 3471 ft | 2 kts | 356° |
| 2026-05-06 12:52 | -15.86883 | -47.91872 | 3471 ft | 4 kts | 347° |
| 2026-05-06 12:53 | -15.86906 | -47.91862 | 3471 ft | 4 kts | 307° |
| 2026-05-06 12:53 | -15.86912 | -47.91850 | 3471 ft | 5 kts | 266° |
| 2026-05-06 12:53 | -15.86920 | -47.91871 | 3471 ft | 4 kts | 238° |
| 2026-05-06 12:53 | -15.86939 | -47.91891 | 3471 ft | 4 kts | 221° |
| 2026-05-06 12:54 | -15.86959 | -47.91899 | 3471 ft | 4 kts | 170° |
| 2026-05-06 12:54 | -15.86966 | -47.91880 | 3471 ft | 4 kts | 97° |
| 2026-05-06 12:54 | -15.86965 | -47.91868 | 3471 ft | 0 kts | 86° |
| 2026-05-06 12:56 | -15.86965 | -47.91864 | 3471 ft | 2 kts | 86° |
| 2026-05-06 12:56 | -15.86962 | -47.91818 | 3471 ft | 10 kts | 86° |
| 2026-05-06 12:56 | -15.86958 | -47.91741 | 3471 ft | 11 kts | 86° |
| 2026-05-06 12:57 | -15.86909 | -47.91697 | 3471 ft | 10 kts | 1° |
| 2026-05-06 12:57 | -15.86838 | -47.91701 | 3471 ft | 10 kts | 357° |
| 2026-05-06 12:57 | -15.86762 | -47.91706 | 3471 ft | 12 kts | 356° |
| 2026-05-06 12:57 | -15.86668 | -47.91713 | 3470 ft | 15 kts | 355° |
| 2026-05-06 12:58 | -15.86598 | -47.91796 | 3470 ft | 17 kts | 307° |
| 2026-05-06 12:58 | -15.86497 | -47.91846 | 3468 ft | 17 kts | 287° |
| 2026-05-06 12:58 | -15.86499 | -47.91965 | 3467 ft | 16 kts | 266° |
| 2026-05-06 12:58 | -15.86506 | -47.92079 | 3467 ft | 16 kts | 265° |
| 2026-05-06 12:59 | -15.86516 | -47.92192 | 3468 ft | 15 kts | 265° |
| 2026-05-06 12:59 | -15.86517 | -47.92279 | 3468 ft | 9 kts | 290° |
| 2026-05-06 12:59 | -15.86472 | -47.92280 | 3466 ft | 9 kts | 66° |
| 2026-05-06 12:59 | -15.86434 | -47.92231 | 3464 ft | 9 kts | 49° |
| 2026-05-06 13:00 | -15.86392 | -47.92181 | 3464 ft | 10 kts | 49° |
| 2026-05-06 13:00 | -15.86341 | -47.92120 | 3465 ft | 12 kts | 49° |
| 2026-05-06 13:00 | -15.86312 | -47.92044 | 3465 ft | 12 kts | 85° |
| 2026-05-06 13:00 | -15.86298 | -47.91835 | 3463 ft | 62 kts | 86° |
| 2026-05-06 13:01 | -15.86254 | -47.91146 | 3470 ft | 127 kts | 86° |
| 2026-05-06 13:01 | -15.86198 | -47.90051 | 3552 ft | 173 kts | 88° |
| 2026-05-06 13:01 | -15.86135 | -47.88800 | 4319 ft | 174 kts | 88° |
| 2026-05-06 13:01 | -15.86057 | -47.87514 | 5049 ft | 188 kts | 87° |
| 2026-05-06 13:02 | -15.85951 | -47.86061 | 5315 ft | 215 kts | 86° |
| 2026-05-06 13:02 | -15.85835 | -47.84433 | 5708 ft | 233 kts | 86° |
| 2026-05-06 13:02 | -15.85716 | -47.82687 | 6150 ft | 252 kts | 85° |
| 2026-05-06 13:02 | -15.85593 | -47.80839 | 6901 ft | 260 kts | 85° |
| 2026-05-06 13:03 | -15.85452 | -47.78957 | 7847 ft | 262 kts | 80° |
| 2026-05-06 13:03 | -15.84788 | -47.77220 | 8706 ft | 266 kts | 56° |
| 2026-05-06 13:03 | -15.83427 | -47.75863 | 9503 ft | 275 kts | 36° |
| 2026-05-06 13:03 | -15.81628 | -47.75190 | 9963 ft | 286 kts | 10° |
| 2026-05-06 13:04 | -15.79602 | -47.75259 | 10676 ft | 301 kts | 352° |
| 2026-05-06 13:04 | -15.77539 | -47.76034 | 10935 ft | 329 kts | 338° |
| 2026-05-06 13:04 | -15.75439 | -47.77097 | 11489 ft | 340 kts | 336° |
| 2026-05-06 13:04 | -15.73309 | -47.78193 | 12242 ft | 343 kts | 336° |
| 2026-05-06 13:05 | -15.71150 | -47.79274 | 13024 ft | 346 kts | 336° |
| 2026-05-06 13:05 | -15.68954 | -47.80350 | 13705 ft | 352 kts | 336° |
| 2026-05-06 13:05 | -15.66727 | -47.81441 | 14341 ft | 357 kts | 335° |
| 2026-05-06 13:05 | -15.64474 | -47.82590 | 14969 ft | 363 kts | 335° |
| 2026-05-06 13:06 | -15.62198 | -47.83772 | 15610 ft | 368 kts | 334° |
| 2026-05-06 13:06 | -15.59901 | -47.84971 | 16245 ft | 372 kts | 334° |
| 2026-05-06 13:06 | -15.57566 | -47.86189 | 16841 ft | 377 kts | 334° |
| 2026-05-06 13:06 | -15.55205 | -47.87419 | 17426 ft | 382 kts | 333° |
| 2026-05-06 13:07 | -15.52843 | -47.88646 | 17999 ft | 386 kts | 333° |
| 2026-05-06 13:07 | -15.50422 | -47.89902 | 18567 ft | 391 kts | 333° |
| 2026-05-06 13:07 | -15.47973 | -47.91171 | 19112 ft | 396 kts | 333° |
| 2026-05-06 13:07 | -15.45494 | -47.92454 | 19663 ft | 400 kts | 333° |
| 2026-05-06 13:08 | -15.42991 | -47.93750 | 20216 ft | 404 kts | 333° |
| 2026-05-06 13:08 | -15.40463 | -47.95057 | 20737 ft | 408 kts | 333° |
| 2026-05-06 13:08 | -15.37911 | -47.96376 | 21270 ft | 412 kts | 333° |
| 2026-05-06 13:08 | -15.35337 | -47.97707 | 21752 ft | 416 kts | 333° |
| 2026-05-06 13:09 | -15.32730 | -47.99054 | 22250 ft | 420 kts | 333° |
| 2026-05-06 13:09 | -15.30105 | -48.00410 | 22747 ft | 423 kts | 332° |
| 2026-05-06 13:09 | -15.27458 | -48.01777 | 23215 ft | 427 kts | 333° |
| 2026-05-06 13:09 | -15.24781 | -48.03160 | 23669 ft | 431 kts | 332° |
| 2026-05-06 13:10 | -15.22086 | -48.04550 | 24116 ft | 435 kts | 332° |
| 2026-05-06 13:10 | -15.19373 | -48.05950 | 24556 ft | 438 kts | 332° |
| 2026-05-06 13:10 | -15.16637 | -48.07361 | 25026 ft | 440 kts | 332° |
| 2026-05-06 13:10 | -15.13888 | -48.08779 | 25426 ft | 444 kts | 332° |
| 2026-05-06 13:11 | -15.11108 | -48.10213 | 25818 ft | 448 kts | 332° |
| 2026-05-06 13:11 | -15.08309 | -48.11655 | 26197 ft | 451 kts | 331° |
| 2026-05-06 13:11 | -15.05489 | -48.13109 | 26601 ft | 454 kts | 331° |
| 2026-05-06 13:11 | -15.02651 | -48.14571 | 26972 ft | 457 kts | 331° |
| 2026-05-06 13:12 | -14.99795 | -48.16042 | 27330 ft | 461 kts | 331° |
| 2026-05-06 13:12 | -14.96913 | -48.17526 | 27684 ft | 464 kts | 330° |
| 2026-05-06 13:12 | -14.94007 | -48.19011 | 28041 ft | 467 kts | 333° |
| 2026-05-06 13:12 | -14.90922 | -48.20006 | 28311 ft | 476 kts | 351° |
| 2026-05-06 13:13 | -14.87602 | -48.20224 | 28658 ft | 480 kts | 357° |
| 2026-05-06 13:13 | -14.84258 | -48.20297 | 28971 ft | 483 kts | 358° |
| 2026-05-06 13:13 | -14.80877 | -48.20340 | 29239 ft | 487 kts | 358° |
| 2026-05-06 13:13 | -14.77478 | -48.20383 | 29541 ft | 490 kts | 358° |
| 2026-05-06 13:14 | -14.74055 | -48.20440 | 29852 ft | 492 kts | 357° |
| 2026-05-06 13:14 | -14.70624 | -48.20513 | 30113 ft | 496 kts | 357° |
| 2026-05-06 13:14 | -14.67159 | -48.20600 | 30338 ft | 500 kts | 357° |
| 2026-05-06 13:14 | -14.63671 | -48.20695 | 30614 ft | 502 kts | 356° |
| 2026-05-06 13:15 | -14.60172 | -48.20794 | 30946 ft | 503 kts | 356° |
| 2026-05-06 13:15 | -14.56667 | -48.20895 | 31258 ft | 505 kts | 356° |
| 2026-05-06 13:15 | -14.53150 | -48.20995 | 31541 ft | 507 kts | 356° |
| 2026-05-06 13:15 | -14.49614 | -48.21096 | 31798 ft | 509 kts | 356° |
| 2026-05-06 13:16 | -14.47261 | -48.21163 | 31965 ft | 510 kts | 356° |
| 2026-05-06 13:16 | -14.42487 | -48.21297 | 32296 ft | 513 kts | 356° |
| 2026-05-06 13:16 | -14.40121 | -48.21363 | 32451 ft | 514 kts | 356° |
| 2026-05-06 13:16 | -14.36538 | -48.21464 | 32680 ft | 516 kts | 356° |
| 2026-05-06 13:17 | -14.32940 | -48.21564 | 32940 ft | 517 kts | 356° |
| 2026-05-06 13:17 | -14.29349 | -48.21664 | 33288 ft | 516 kts | 356° |
| 2026-05-06 13:17 | -14.24608 | -48.21795 | 33766 ft | 514 kts | 356° |
| 2026-05-06 13:17 | -14.22199 | -48.21862 | 33995 ft | 513 kts | 356° |
| 2026-05-06 13:18 | -14.17470 | -48.21994 | 34372 ft | 513 kts | 355° |
| 2026-05-06 13:18 | -14.15062 | -48.22061 | 34576 ft | 512 kts | 355° |
| 2026-05-06 13:18 | -14.11500 | -48.22160 | 34941 ft | 510 kts | 355° |
| 2026-05-06 13:18 | -14.08004 | -48.22257 | 35300 ft | 508 kts | 355° |
| 2026-05-06 13:19 | -14.04475 | -48.22355 | 35650 ft | 505 kts | 355° |
| 2026-05-06 13:19 | -14.00963 | -48.22453 | 35921 ft | 505 kts | 355° |
| 2026-05-06 13:19 | -13.97455 | -48.22551 | 36217 ft | 503 kts | 355° |
| 2026-05-06 13:20 | -13.90489 | -48.22744 | 36257 ft | 494 kts | 355° |
| 2026-05-06 13:20 | -13.83663 | -48.22933 | 36265 ft | 488 kts | 355° |
| 2026-05-06 13:21 | -13.76875 | -48.23123 | 36265 ft | 487 kts | 355° |
| 2026-05-06 13:21 | -13.70109 | -48.23312 | 36265 ft | 485 kts | 355° |
| 2026-05-06 13:22 | -13.63356 | -48.23501 | 36261 ft | 485 kts | 355° |
| 2026-05-06 13:22 | -13.56603 | -48.23689 | 36259 ft | 485 kts | 355° |
| 2026-05-06 13:23 | -13.49844 | -48.23876 | 36256 ft | 486 kts | 355° |
| 2026-05-06 13:23 | -13.43079 | -48.24064 | 36247 ft | 486 kts | 355° |
| 2026-05-06 13:24 | -13.36308 | -48.24252 | 36241 ft | 487 kts | 355° |
| 2026-05-06 13:24 | -13.29579 | -48.24438 | 36241 ft | 487 kts | 355° |
| 2026-05-06 13:25 | -13.22800 | -48.24626 | 36231 ft | 487 kts | 355° |
| 2026-05-06 13:25 | -13.16020 | -48.24813 | 36230 ft | 487 kts | 355° |
| 2026-05-06 13:26 | -13.09247 | -48.25000 | 36225 ft | 486 kts | 355° |
| 2026-05-06 13:26 | -13.02488 | -48.25187 | 36220 ft | 485 kts | 355° |
| 2026-05-06 13:27 | -12.95740 | -48.25373 | 36211 ft | 484 kts | 355° |
| 2026-05-06 13:27 | -12.89011 | -48.25559 | 36212 ft | 483 kts | 355° |
| 2026-05-06 13:28 | -12.82344 | -48.25743 | 36202 ft | 482 kts | 355° |
| 2026-05-06 13:28 | -12.75645 | -48.25928 | 36199 ft | 480 kts | 355° |
| 2026-05-06 13:29 | -12.68969 | -48.26112 | 36197 ft | 479 kts | 355° |
| 2026-05-06 13:29 | -12.62291 | -48.26296 | 36188 ft | 479 kts | 355° |
| 2026-05-06 13:30 | -12.55642 | -48.26479 | 36184 ft | 478 kts | 355° |
| 2026-05-06 13:30 | -12.48986 | -48.26663 | 36175 ft | 478 kts | 355° |
| 2026-05-06 13:31 | -12.42338 | -48.26845 | 36164 ft | 478 kts | 355° |
| 2026-05-06 13:31 | -12.35686 | -48.27023 | 36165 ft | 478 kts | 355° |
| 2026-05-06 13:32 | -12.29044 | -48.27199 | 36154 ft | 478 kts | 355° |
| 2026-05-06 13:32 | -12.22432 | -48.27375 | 36156 ft | 478 kts | 355° |
| 2026-05-06 13:33 | -12.15776 | -48.27553 | 36148 ft | 478 kts | 355° |
| 2026-05-06 13:33 | -12.09122 | -48.27730 | 36133 ft | 479 kts | 355° |
| 2026-05-06 13:34 | -12.02457 | -48.27908 | 36142 ft | 479 kts | 355° |
| 2026-05-06 13:34 | -11.95789 | -48.28085 | 36136 ft | 479 kts | 355° |
| 2026-05-06 13:35 | -11.89114 | -48.28263 | 36131 ft | 479 kts | 355° |
| 2026-05-06 13:35 | -11.82452 | -48.28440 | 36127 ft | 479 kts | 355° |
| 2026-05-06 13:36 | -11.75827 | -48.28616 | 36120 ft | 479 kts | 355° |
| 2026-05-06 13:36 | -11.69166 | -48.28793 | 36116 ft | 479 kts | 355° |
| 2026-05-06 13:37 | -11.62503 | -48.28975 | 36112 ft | 478 kts | 355° |
| 2026-05-06 13:37 | -11.55852 | -48.29160 | 36110 ft | 478 kts | 355° |
| 2026-05-06 13:38 | -11.49209 | -48.29344 | 36101 ft | 477 kts | 355° |
| 2026-05-06 13:38 | -11.42568 | -48.29528 | 36102 ft | 477 kts | 355° |
| 2026-05-06 13:39 | -11.35933 | -48.29711 | 36101 ft | 477 kts | 355° |
| 2026-05-06 13:39 | -11.29310 | -48.29894 | 36097 ft | 476 kts | 356° |
| 2026-05-06 13:40 | -11.22696 | -48.30250 | 36092 ft | 475 kts | 353° |
| 2026-05-06 13:40 | -11.16149 | -48.30738 | 36090 ft | 474 kts | 353° |
| 2026-05-06 13:41 | -11.09563 | -48.31201 | 36087 ft | 474 kts | 353° |
| 2026-05-06 13:41 | -11.02985 | -48.31637 | 36082 ft | 473 kts | 353° |
| 2026-05-06 13:42 | -10.96415 | -48.32072 | 36083 ft | 473 kts | 353° |
| 2026-05-06 13:42 | -10.89844 | -48.32466 | 36081 ft | 473 kts | 354° |
| 2026-05-06 13:43 | -10.83262 | -48.32823 | 36086 ft | 472 kts | 354° |
| 2026-05-06 13:43 | -10.76694 | -48.33183 | 36080 ft | 472 kts | 354° |
| 2026-05-06 13:44 | -10.70165 | -48.33547 | 36085 ft | 472 kts | 354° |
| 2026-05-06 13:44 | -10.63598 | -48.33915 | 36074 ft | 472 kts | 354° |
| 2026-05-06 13:45 | -10.57032 | -48.34284 | 36073 ft | 472 kts | 354° |
| 2026-05-06 13:45 | -10.47185 | -48.34834 | 36074 ft | 472 kts | 354° |
| 2026-05-06 13:46 | -10.40665 | -48.35199 | 36076 ft | 472 kts | 354° |
| 2026-05-06 13:46 | -10.34110 | -48.35566 | 36075 ft | 472 kts | 354° |
| 2026-05-06 13:47 | -10.27549 | -48.35967 | 36072 ft | 472 kts | 355° |
| 2026-05-06 13:47 | -10.20974 | -48.36112 | 36073 ft | 473 kts | 358° |
| 2026-05-06 13:48 | -10.14394 | -48.36133 | 36075 ft | 473 kts | 357° |
| 2026-05-06 13:48 | -10.07810 | -48.36191 | 36077 ft | 473 kts | 357° |
| 2026-05-06 13:49 | -10.01227 | -48.36280 | 36074 ft | 473 kts | 357° |
| 2026-05-06 13:49 | -9.94643 | -48.36376 | 36073 ft | 473 kts | 357° |
| 2026-05-06 13:50 | -9.88058 | -48.36468 | 36073 ft | 472 kts | 357° |
| 2026-05-06 13:50 | -9.81486 | -48.36560 | 36074 ft | 472 kts | 357° |
| 2026-05-06 13:51 | -9.74912 | -48.36647 | 36076 ft | 472 kts | 357° |
| 2026-05-06 13:51 | -9.68340 | -48.36725 | 36077 ft | 472 kts | 357° |
| 2026-05-06 13:52 | -9.61765 | -48.36804 | 36084 ft | 472 kts | 357° |
| 2026-05-06 13:52 | -9.55248 | -48.36888 | 36081 ft | 472 kts | 357° |
| 2026-05-06 13:53 | -9.48673 | -48.36976 | 36082 ft | 471 kts | 357° |
| 2026-05-06 13:53 | -9.42120 | -48.37064 | 36085 ft | 471 kts | 357° |
| 2026-05-06 13:54 | -9.35552 | -48.37151 | 36084 ft | 471 kts | 357° |
| 2026-05-06 13:54 | -9.29005 | -48.37237 | 36082 ft | 471 kts | 357° |
| 2026-05-06 13:55 | -9.22450 | -48.37324 | 36078 ft | 470 kts | 357° |
| 2026-05-06 13:55 | -9.15947 | -48.37409 | 36086 ft | 470 kts | 357° |
| 2026-05-06 13:56 | -9.09402 | -48.37496 | 36085 ft | 470 kts | 357° |
| 2026-05-06 13:56 | -9.02865 | -48.37582 | 36083 ft | 470 kts | 357° |
| 2026-05-06 13:57 | -8.96317 | -48.37668 | 36081 ft | 470 kts | 357° |
| 2026-05-06 13:57 | -8.89780 | -48.37754 | 36090 ft | 470 kts | 357° |
| 2026-05-06 13:58 | -8.83238 | -48.37840 | 36081 ft | 470 kts | 357° |
| 2026-05-06 13:58 | -8.76701 | -48.37926 | 36085 ft | 470 kts | 357° |
| 2026-05-06 13:59 | -8.70157 | -48.38012 | 36077 ft | 469 kts | 358° |
| 2026-05-06 13:59 | -8.63673 | -48.38098 | 36087 ft | 469 kts | 358° |
| 2026-05-06 14:00 | -8.57147 | -48.38206 | 36081 ft | 469 kts | 357° |
| 2026-05-06 14:00 | -8.50623 | -48.38327 | 36083 ft | 469 kts | 357° |
| 2026-05-06 14:01 | -8.44104 | -48.38444 | 36084 ft | 469 kts | 357° |
| 2026-05-06 14:01 | -8.37578 | -48.38549 | 36085 ft | 469 kts | 358° |
| 2026-05-06 14:02 | -8.31043 | -48.38620 | 36081 ft | 469 kts | 358° |
| 2026-05-06 14:02 | -8.25616 | -48.38678 | 36086 ft | 469 kts | 358° |
| 2026-05-06 14:03 | -8.19078 | -48.38753 | 36082 ft | 469 kts | 358° |
| 2026-05-06 14:03 | -8.12540 | -48.38832 | 36085 ft | 470 kts | 358° |
| 2026-05-06 14:04 | -8.05994 | -48.38921 | 36085 ft | 470 kts | 358° |
| 2026-05-06 14:04 | -7.99452 | -48.39012 | 36090 ft | 470 kts | 358° |
| 2026-05-06 14:05 | -7.92914 | -48.39103 | 36096 ft | 470 kts | 358° |
| 2026-05-06 14:05 | -7.86382 | -48.39192 | 36093 ft | 469 kts | 358° |
| 2026-05-06 14:06 | -7.79849 | -48.39281 | 36093 ft | 469 kts | 358° |
| 2026-05-06 14:06 | -7.73324 | -48.39370 | 36092 ft | 469 kts | 358° |
| 2026-05-06 14:07 | -7.66841 | -48.39459 | 36093 ft | 469 kts | 358° |
| 2026-05-06 14:07 | -7.60313 | -48.39548 | 36093 ft | 469 kts | 358° |
| 2026-05-06 14:08 | -7.53787 | -48.39637 | 36092 ft | 468 kts | 358° |
| 2026-05-06 14:08 | -7.47269 | -48.39725 | 36093 ft | 468 kts | 358° |
| 2026-05-06 14:09 | -7.40764 | -48.39814 | 36094 ft | 467 kts | 358° |
| 2026-05-06 14:09 | -7.34269 | -48.39902 | 36092 ft | 466 kts | 358° |
| 2026-05-06 14:10 | -7.27785 | -48.39991 | 36091 ft | 465 kts | 358° |
| 2026-05-06 14:10 | -7.21313 | -48.40079 | 36094 ft | 465 kts | 358° |
| 2026-05-06 14:11 | -7.14853 | -48.40167 | 36091 ft | 464 kts | 358° |
| 2026-05-06 14:11 | -7.08400 | -48.40254 | 36097 ft | 464 kts | 358° |
| 2026-05-06 14:12 | -7.01952 | -48.40342 | 36081 ft | 463 kts | 358° |
| 2026-05-06 14:12 | -6.95512 | -48.40430 | 36071 ft | 463 kts | 358° |
| 2026-05-06 14:13 | -6.89109 | -48.40517 | 36042 ft | 463 kts | 358° |
| 2026-05-06 14:13 | -6.82672 | -48.40604 | 36035 ft | 463 kts | 358° |
| 2026-05-06 14:14 | -6.76233 | -48.40692 | 36025 ft | 462 kts | 358° |
| 2026-05-06 14:14 | -6.69805 | -48.40779 | 36029 ft | 462 kts | 358° |
| 2026-05-06 14:15 | -6.63381 | -48.40866 | 36028 ft | 461 kts | 358° |
| 2026-05-06 14:15 | -6.56969 | -48.40953 | 36030 ft | 461 kts | 358° |
| 2026-05-06 14:16 | -6.50562 | -48.41040 | 36026 ft | 460 kts | 358° |
| 2026-05-06 14:16 | -6.44151 | -48.41127 | 36028 ft | 460 kts | 358° |
| 2026-05-06 14:17 | -6.37754 | -48.41214 | 36032 ft | 460 kts | 358° |
| 2026-05-06 14:17 | -6.31362 | -48.41301 | 36025 ft | 459 kts | 358° |
| 2026-05-06 14:18 | -6.24964 | -48.41384 | 36027 ft | 459 kts | 358° |
| 2026-05-06 14:18 | -6.18571 | -48.41464 | 36030 ft | 459 kts | 358° |
| 2026-05-06 14:19 | -6.12176 | -48.41545 | 36025 ft | 459 kts | 358° |
| 2026-05-06 14:19 | -6.05787 | -48.41626 | 36036 ft | 459 kts | 358° |
| 2026-05-06 14:20 | -5.99398 | -48.41707 | 36052 ft | 459 kts | 358° |
| 2026-05-06 14:20 | -5.93007 | -48.41789 | 36049 ft | 459 kts | 358° |
| 2026-05-06 14:21 | -5.86620 | -48.41870 | 36042 ft | 459 kts | 358° |
| 2026-05-06 14:21 | -5.80226 | -48.41951 | 36044 ft | 459 kts | 358° |
| 2026-05-06 14:22 | -5.73864 | -48.42032 | 36053 ft | 459 kts | 358° |
| 2026-05-06 14:22 | -5.67465 | -48.42114 | 36048 ft | 459 kts | 358° |
| 2026-05-06 14:23 | -5.61066 | -48.42195 | 36040 ft | 459 kts | 358° |
| 2026-05-06 14:23 | -5.54678 | -48.42276 | 36047 ft | 459 kts | 358° |
| 2026-05-06 14:24 | -5.48291 | -48.42358 | 36048 ft | 458 kts | 358° |
| 2026-05-06 14:24 | -5.41912 | -48.42441 | 36038 ft | 458 kts | 358° |
| 2026-05-06 14:25 | -5.35542 | -48.42524 | 36054 ft | 457 kts | 358° |
| 2026-05-06 14:25 | -5.29217 | -48.42606 | 36045 ft | 457 kts | 358° |
| 2026-05-06 14:26 | -5.22858 | -48.42689 | 36029 ft | 457 kts | 358° |
| 2026-05-06 14:26 | -5.16500 | -48.42771 | 36031 ft | 456 kts | 358° |
| 2026-05-06 14:27 | -5.10145 | -48.42854 | 36027 ft | 456 kts | 358° |
| 2026-05-06 14:27 | -5.03802 | -48.42938 | 36029 ft | 455 kts | 358° |
| 2026-05-06 14:28 | -4.97503 | -48.43027 | 36029 ft | 455 kts | 358° |
| 2026-05-06 14:28 | -4.91161 | -48.43117 | 36026 ft | 455 kts | 358° |
| 2026-05-06 14:29 | -4.84824 | -48.43206 | 36032 ft | 455 kts | 358° |
| 2026-05-06 14:29 | -4.78489 | -48.43295 | 36023 ft | 455 kts | 358° |
| 2026-05-06 14:30 | -4.72152 | -48.43384 | 36033 ft | 455 kts | 358° |
| 2026-05-06 14:30 | -4.65818 | -48.43474 | 36023 ft | 455 kts | 358° |
| 2026-05-06 14:31 | -4.59485 | -48.43562 | 36033 ft | 455 kts | 358° |
| 2026-05-06 14:31 | -4.53189 | -48.43651 | 36031 ft | 455 kts | 358° |
| 2026-05-06 14:32 | -4.46847 | -48.43740 | 36021 ft | 455 kts | 358° |
| 2026-05-06 14:32 | -4.40510 | -48.43828 | 36025 ft | 455 kts | 358° |
| 2026-05-06 14:33 | -4.34184 | -48.43916 | 36028 ft | 454 kts | 358° |
| 2026-05-06 14:33 | -4.27859 | -48.44004 | 36024 ft | 454 kts | 358° |
| 2026-05-06 14:34 | -4.21537 | -48.44093 | 36033 ft | 454 kts | 358° |
| 2026-05-06 14:34 | -4.15220 | -48.44181 | 36025 ft | 454 kts | 358° |
| 2026-05-06 14:35 | -4.08946 | -48.44268 | 36029 ft | 453 kts | 358° |
| 2026-05-06 14:35 | -4.02597 | -48.44357 | 36027 ft | 453 kts | 358° |
| 2026-05-06 14:36 | -3.96282 | -48.44444 | 36030 ft | 453 kts | 358° |
| 2026-05-06 14:36 | -3.90021 | -48.44532 | 36027 ft | 453 kts | 358° |
| 2026-05-06 14:37 | -3.83703 | -48.44620 | 36028 ft | 453 kts | 359° |
| 2026-05-06 14:37 | -3.77397 | -48.44707 | 36029 ft | 453 kts | 359° |
| 2026-05-06 14:38 | -3.71100 | -48.44795 | 36023 ft | 453 kts | 359° |
| 2026-05-06 14:38 | -3.64794 | -48.44883 | 36018 ft | 453 kts | 359° |
| 2026-05-06 14:39 | -3.58501 | -48.44971 | 36032 ft | 459 kts | 359° |
| 2026-05-06 14:39 | -3.52035 | -48.45061 | 36030 ft | 469 kts | 359° |
| 2026-05-06 14:40 | -3.48762 | -48.45107 | 35837 ft | 475 kts | 358° |
| 2026-05-06 14:40 | -3.45436 | -48.45223 | 35095 ft | 477 kts | 356° |
| 2026-05-06 14:40 | -3.42123 | -48.45414 | 34426 ft | 477 kts | 356° |
| 2026-05-06 14:40 | -3.38802 | -48.45635 | 33713 ft | 477 kts | 356° |
| 2026-05-06 14:41 | -3.35487 | -48.45860 | 32973 ft | 478 kts | 356° |
| 2026-05-06 14:41 | -3.32162 | -48.46079 | 32275 ft | 479 kts | 356° |
| 2026-05-06 14:41 | -3.28849 | -48.46287 | 31756 ft | 475 kts | 356° |
| 2026-05-06 14:41 | -3.25565 | -48.46486 | 31211 ft | 472 kts | 356° |
| 2026-05-06 14:42 | -3.22289 | -48.46680 | 30675 ft | 469 kts | 357° |
| 2026-05-06 14:42 | -3.19042 | -48.46869 | 30145 ft | 466 kts | 357° |
| 2026-05-06 14:42 | -3.15812 | -48.47057 | 29620 ft | 462 kts | 357° |
| 2026-05-06 14:42 | -3.12612 | -48.47243 | 29086 ft | 459 kts | 357° |
| 2026-05-06 14:43 | -3.09435 | -48.47429 | 28549 ft | 456 kts | 357° |
| 2026-05-06 14:43 | -3.06285 | -48.47613 | 28014 ft | 452 kts | 357° |
| 2026-05-06 14:43 | -3.03152 | -48.47796 | 27465 ft | 448 kts | 357° |
| 2026-05-06 14:43 | -3.00047 | -48.47977 | 26949 ft | 445 kts | 356° |
| 2026-05-06 14:44 | -2.96969 | -48.48157 | 26412 ft | 441 kts | 356° |
| 2026-05-06 14:44 | -2.94949 | -48.48275 | 26078 ft | 438 kts | 356° |
| 2026-05-06 14:44 | -2.91916 | -48.48453 | 25562 ft | 435 kts | 356° |
| 2026-05-06 14:45 | -2.85933 | -48.48803 | 24530 ft | 426 kts | 356° |
| 2026-05-06 14:45 | -2.82986 | -48.48975 | 24021 ft | 422 kts | 356° |
| 2026-05-06 14:45 | -2.80069 | -48.49146 | 23518 ft | 418 kts | 356° |
| 2026-05-06 14:45 | -2.77176 | -48.49315 | 23017 ft | 414 kts | 356° |
| 2026-05-06 14:46 | -2.74309 | -48.49483 | 22520 ft | 410 kts | 356° |
| 2026-05-06 14:46 | -2.71476 | -48.49649 | 22027 ft | 406 kts | 357° |
| 2026-05-06 14:46 | -2.68666 | -48.49813 | 21541 ft | 403 kts | 357° |
| 2026-05-06 14:46 | -2.65881 | -48.49976 | 21055 ft | 399 kts | 357° |
| 2026-05-06 14:47 | -2.63115 | -48.50138 | 20570 ft | 396 kts | 357° |
| 2026-05-06 14:47 | -2.60365 | -48.50299 | 20088 ft | 393 kts | 358° |
| 2026-05-06 14:47 | -2.57649 | -48.50458 | 19612 ft | 390 kts | 358° |
| 2026-05-06 14:47 | -2.54989 | -48.50613 | 19146 ft | 387 kts | 358° |
| 2026-05-06 14:48 | -2.52315 | -48.50770 | 18674 ft | 384 kts | 358° |
| 2026-05-06 14:48 | -2.49658 | -48.50925 | 18209 ft | 381 kts | 358° |
| 2026-05-06 14:48 | -2.47022 | -48.51080 | 17746 ft | 378 kts | 358° |
| 2026-05-06 14:48 | -2.44403 | -48.51235 | 17275 ft | 376 kts | 358° |
| 2026-05-06 14:49 | -2.41800 | -48.51389 | 16819 ft | 373 kts | 358° |
| 2026-05-06 14:49 | -2.39216 | -48.51542 | 16361 ft | 370 kts | 358° |
| 2026-05-06 14:49 | -2.36658 | -48.51693 | 15904 ft | 368 kts | 359° |
| 2026-05-06 14:49 | -2.34114 | -48.51843 | 15450 ft | 365 kts | 359° |
| 2026-05-06 14:50 | -2.31589 | -48.51992 | 14999 ft | 362 kts | 359° |
| 2026-05-06 14:50 | -2.29081 | -48.52140 | 14550 ft | 360 kts | 359° |
| 2026-05-06 14:50 | -2.26588 | -48.52287 | 14102 ft | 357 kts | 359° |
| 2026-05-06 14:50 | -2.24114 | -48.52433 | 13662 ft | 354 kts | 359° |
| 2026-05-06 14:51 | -2.21661 | -48.52578 | 13223 ft | 352 kts | 360° |
| 2026-05-06 14:51 | -2.19226 | -48.52722 | 12772 ft | 349 kts | 360° |
| 2026-05-06 14:51 | -2.16811 | -48.52864 | 12346 ft | 346 kts | 0° |
| 2026-05-06 14:51 | -2.14414 | -48.53005 | 11914 ft | 344 kts | 0° |
| 2026-05-06 14:52 | -2.12036 | -48.53146 | 11485 ft | 341 kts | 0° |
| 2026-05-06 14:52 | -2.09675 | -48.53285 | 11059 ft | 339 kts | 0° |
| 2026-05-06 14:52 | -2.07328 | -48.53423 | 10666 ft | 336 kts | 0° |
| 2026-05-06 14:52 | -2.05036 | -48.53560 | 10534 ft | 325 kts | 0° |
| 2026-05-06 14:53 | -2.02809 | -48.53693 | 10381 ft | 315 kts | 0° |
| 2026-05-06 14:53 | -2.00677 | -48.53821 | 10246 ft | 306 kts | 1° |
| 2026-05-06 14:53 | -1.98581 | -48.53945 | 10114 ft | 298 kts | 1° |
| 2026-05-06 14:53 | -1.96538 | -48.54066 | 9965 ft | 290 kts | 1° |
| 2026-05-06 14:54 | -1.94521 | -48.54184 | 9665 ft | 289 kts | 1° |
| 2026-05-06 14:54 | -1.92521 | -48.54300 | 9384 ft | 288 kts | 1° |
| 2026-05-06 14:54 | -1.90523 | -48.54416 | 9078 ft | 287 kts | 1° |
| 2026-05-06 14:54 | -1.88535 | -48.54532 | 8778 ft | 286 kts | 1° |
| 2026-05-06 14:55 | -1.86554 | -48.54649 | 8483 ft | 285 kts | 1° |
| 2026-05-06 14:55 | -1.84578 | -48.54764 | 8183 ft | 284 kts | 1° |
| 2026-05-06 14:55 | -1.82603 | -48.54881 | 7879 ft | 284 kts | 0° |
| 2026-05-06 14:55 | -1.80633 | -48.54997 | 7579 ft | 283 kts | 0° |
| 2026-05-06 14:56 | -1.78672 | -48.55113 | 7289 ft | 282 kts | 0° |
| 2026-05-06 14:56 | -1.76714 | -48.55228 | 6983 ft | 281 kts | 0° |
| 2026-05-06 14:56 | -1.74766 | -48.55343 | 6688 ft | 280 kts | 0° |
| 2026-05-06 14:56 | -1.72825 | -48.55457 | 6389 ft | 279 kts | 0° |
| 2026-05-06 14:57 | -1.70866 | -48.55573 | 6086 ft | 278 kts | 0° |
| 2026-05-06 14:57 | -1.68943 | -48.55686 | 5809 ft | 276 kts | 0° |
| 2026-05-06 14:57 | -1.67026 | -48.55799 | 5513 ft | 275 kts | 360° |
| 2026-05-06 14:57 | -1.65208 | -48.55905 | 5242 ft | 274 kts | 359° |
| 2026-05-06 14:58 | -1.63306 | -48.56018 | 4949 ft | 273 kts | 359° |
| 2026-05-06 14:58 | -1.61441 | -48.56128 | 4671 ft | 271 kts | 359° |
| 2026-05-06 14:58 | -1.59572 | -48.56295 | 4475 ft | 268 kts | 349° |
| 2026-05-06 14:58 | -1.57833 | -48.56991 | 4190 ft | 269 kts | 336° |
| 2026-05-06 14:59 | -1.56146 | -48.57795 | 3895 ft | 268 kts | 337° |
| 2026-05-06 14:59 | -1.54456 | -48.58580 | 3611 ft | 267 kts | 337° |
| 2026-05-06 14:59 | -1.52773 | -48.59346 | 3437 ft | 261 kts | 340° |
| 2026-05-06 14:59 | -1.51043 | -48.59586 | 3197 ft | 246 kts | 13° |
| 2026-05-06 15:00 | -1.49542 | -48.58908 | 2949 ft | 233 kts | 33° |
| 2026-05-06 15:00 | -1.48263 | -48.57966 | 2668 ft | 224 kts | 39° |
| 2026-05-06 15:00 | -1.47112 | -48.56947 | 2366 ft | 217 kts | 44° |
| 2026-05-06 15:00 | -1.46086 | -48.55914 | 2073 ft | 201 kts | 45° |
| 2026-05-06 15:01 | -1.45154 | -48.54960 | 1833 ft | 183 kts | 45° |
| 2026-05-06 15:01 | -1.44307 | -48.54099 | 1621 ft | 165 kts | 45° |
| 2026-05-06 15:01 | -1.43539 | -48.53321 | 1386 ft | 151 kts | 45° |
| 2026-05-06 15:01 | -1.42824 | -48.52596 | 1199 ft | 147 kts | 44° |
| 2026-05-06 15:02 | -1.42101 | -48.51863 | 1012 ft | 149 kts | 44° |
| 2026-05-06 15:02 | -1.41365 | -48.51116 | 811 ft | 149 kts | 44° |
| 2026-05-06 15:02 | -1.40639 | -48.50380 | 618 ft | 148 kts | 44° |
| 2026-05-06 15:02 | -1.39923 | -48.49639 | 410 ft | 149 kts | 45° |
| 2026-05-06 15:03 | -1.39203 | -48.48907 | 195 ft | 150 kts | 44° |
| 2026-05-06 15:03 | -1.38476 | -48.48176 | 46 ft | 142 kts | 44° |
| 2026-05-06 15:03 | -1.37890 | -48.47581 | 39 ft | 90 kts | 45° |
| 2026-05-06 15:03 | -1.37571 | -48.47257 | 42 ft | 55 kts | 46° |
| 2026-05-06 15:04 | -1.37353 | -48.47035 | 44 ft | 38 kts | 45° |
| 2026-05-06 15:04 | -1.37218 | -48.46944 | 42 ft | 18 kts | 15° |
| 2026-05-06 15:04 | -1.37221 | -48.46897 | 40 ft | 12 kts | 199° |
| 2026-05-06 15:04 | -1.37275 | -48.46957 | 41 ft | 12 kts | 225° |
| 2026-05-06 15:05 | -1.37339 | -48.47023 | 44 ft | 15 kts | 225° |
| 2026-05-06 15:05 | -1.37420 | -48.47106 | 40 ft | 18 kts | 225° |
| 2026-05-06 15:05 | -1.37517 | -48.47205 | 42 ft | 21 kts | 226° |
| 2026-05-06 15:05 | -1.37628 | -48.47316 | 41 ft | 24 kts | 224° |
| 2026-05-06 15:06 | -1.37754 | -48.47442 | 38 ft | 27 kts | 225° |
| 2026-05-06 15:06 | -1.37883 | -48.47572 | 39 ft | 24 kts | 225° |
| 2026-05-06 15:06 | -1.38016 | -48.47626 | 39 ft | 21 kts | 185° |
| 2026-05-06 15:06 | -1.38159 | -48.47639 | 42 ft | 20 kts | 185° |
| 2026-05-06 15:07 | -1.38296 | -48.47652 | 42 ft | 20 kts | 185° |
| 2026-05-06 15:07 | -1.38429 | -48.47665 | 42 ft | 19 kts | 186° |
| 2026-05-06 15:07 | -1.38558 | -48.47676 | 43 ft | 18 kts | 183° |
| 2026-05-06 15:07 | -1.38662 | -48.47705 | 44 ft | 12 kts | 239° |
| 2026-05-06 15:08 | -1.38669 | -48.47785 | 42 ft | 10 kts | 258° |
| 2026-05-06 15:08 | -1.38712 | -48.47814 | 42 ft | 7 kts | 191° |
| 2026-05-06 15:08 | -1.38727 | -48.47819 | 42 ft | 0 kts | 204° |